»·PEaware :: N413C KPSP-KCRQ

N413C :: KPSP-KCRQ

FLIGHT INFORMATION

Flight Status: Arrived
Operator: Privately registered:
United States
More flights under this callsign
Pilot: Alec D. (17934)
Aircraft: PIPER PA-23-235/250 AZTEC
(PA27)
More flights by this aircraft type
Origin: KPSP Palm Springs Intl
United States
Destination: KCRQ McClellan-Palomar
United States
More flights between these airports :: More routes between these airports
Route: +TRM6 TRM V208 JLI
File this flight plan on PilotEdge
Remarks:
Altitude:
(Current/Filed)
10,000ft
Speed:
(Current/Filed)
180kts
Departed: 16-Jul-18 06:51 PM
Arrived: 16-Jul-18 07:45 PM
Distance/Time
Traveled:
57nm/0:54
Distance/Time
To Go:
Arrived

Flight Plot

Page will automatically refresh every two minutes.


Map Options




Map Legend


Flown Route
Filed Route
Departure Airport
Arrival Airport
Navaid (VOR, NDB)
Fix

Horizontal Profiles

Position Reports

Time Latitude Longitude Heading Altitude Ground
Speed
16-Jul-18 18:28 33.823473 -116.496944 54 480ft 0kts
16-Jul-18 18:29 33.823473 -116.496944 54 480ft 0kts
16-Jul-18 18:30 33.823473 -116.496944 54 480ft 0kts
16-Jul-18 18:31 33.823473 -116.496944 54 480ft 0kts
16-Jul-18 18:32 33.823474 -116.496943 54 480ft 0kts
16-Jul-18 18:33 33.823477 -116.496939 54 480ft 0kts
16-Jul-18 18:34 33.823480 -116.496934 54 480ft 0kts
16-Jul-18 18:35 33.823483 -116.496928 55 480ft 0kts
16-Jul-18 18:36 33.823486 -116.496923 55 480ft 0kts
16-Jul-18 18:37 33.823488 -116.496919 55 480ft 0kts
16-Jul-18 18:38 33.823489 -116.496917 55 480ft 0kts
16-Jul-18 18:39 33.823491 -116.496915 55 480ft 0kts
16-Jul-18 18:40 33.823492 -116.496912 55 480ft 0kts
16-Jul-18 18:41 33.823499 -116.496900 55 480ft 0kts
16-Jul-18 18:42 33.822003 -116.496708 145 480ft 9kts
16-Jul-18 18:43 33.819478 -116.494795 217 480ft 9kts
16-Jul-18 18:44 33.818378 -116.496523 252 480ft 0kts
16-Jul-18 18:45 33.818376 -116.496531 252 480ft 0kts
16-Jul-18 18:46 33.818372 -116.496544 252 480ft 0kts
16-Jul-18 18:47 33.818368 -116.496560 252 480ft 0kts
16-Jul-18 18:48 33.818367 -116.496564 252 480ft 0kts
16-Jul-18 18:49 33.818366 -116.496567 252 480ft 0kts
16-Jul-18 18:50 33.818365 -116.496570 252 480ft 0kts
16-Jul-18 18:51 33.818320 -116.496660 234 480ft 3kts
16-Jul-18 18:52 33.820819 -116.499755 324 480ft 56kts
16-Jul-18 18:53 33.841773 -116.514901 356 1262ft 101kts
16-Jul-18 18:54 33.848326 -116.482060 109 2084ft 127kts
16-Jul-18 18:55 33.838369 -116.441905 110 3122ft 123kts
16-Jul-18 18:56 33.832449 -116.400282 101 4280ft 128kts
16-Jul-18 18:57 33.828008 -116.357301 115 5154ft 129kts
16-Jul-18 18:58 33.802845 -116.330009 144 6146ft 123kts
16-Jul-18 18:59 33.776112 -116.303095 144 6842ft 127kts
16-Jul-18 19:00 33.748289 -116.276148 144 7713ft 129kts
16-Jul-18 19:01 33.720107 -116.248907 143 8455ft 127kts
16-Jul-18 19:02 33.690214 -116.220172 143 9145ft 143kts
16-Jul-18 19:03 33.658611 -116.189760 142 9940ft 150kts
16-Jul-18 19:04 33.618417 -116.168747 204 9928ft 169kts
16-Jul-18 19:05 33.580769 -116.202198 215 9946ft 177kts
16-Jul-18 19:06 33.539130 -116.238413 216 9941ft 186kts
16-Jul-18 19:07 33.497171 -116.275151 216 9953ft 187kts
16-Jul-18 19:08 33.455014 -116.312048 216 9974ft 188kts
16-Jul-18 19:09 33.412102 -116.349570 216 9983ft 190kts
16-Jul-18 19:10 33.369214 -116.387024 216 10002ft 188kts
16-Jul-18 19:11 33.326854 -116.423964 215 10026ft 189kts
16-Jul-18 19:12 33.284020 -116.461298 215 10035ft 187kts
16-Jul-18 19:13 33.242358 -116.497529 215 10101ft 185kts
16-Jul-18 19:14 33.200355 -116.534018 215 10136ft 186kts
16-Jul-18 19:15 33.171727 -116.582009 269 10011ft 185kts
16-Jul-18 19:16 33.168580 -116.643642 265 9993ft 183kts
16-Jul-18 19:17 33.164547 -116.704878 265 9696ft 185kts
16-Jul-18 19:18 33.160432 -116.766685 265 8964ft 188kts
16-Jul-18 19:19 33.156196 -116.829218 264 8146ft 190kts
16-Jul-18 19:20 33.157199 -116.892127 271 7371ft 185kts
16-Jul-18 19:21 33.158184 -116.953661 270 6586ft 184kts
16-Jul-18 19:22 33.158736 -117.015000 269 5634ft 184kts
16-Jul-18 19:23 33.159218 -117.075736 269 4740ft 180kts
16-Jul-18 19:24 33.152075 -117.133334 258 3791ft 171kts
16-Jul-18 19:25 33.143104 -117.187668 258 2665ft 164kts
16-Jul-18 19:26 33.134621 -117.240797 257 1493ft 162kts
16-Jul-18 19:27 33.127884 -117.289152 260 2323ft 129kts
16-Jul-18 19:28 33.123625 -117.333061 265 2964ft 142kts
16-Jul-18 19:29 33.146447 -117.362139 17 2922ft 155kts
16-Jul-18 19:30 33.178182 -117.338333 67 3655ft 129kts
16-Jul-18 19:31 33.190645 -117.297497 72 4020ft 139kts
16-Jul-18 19:32 33.204667 -117.252145 69 4006ft 149kts
16-Jul-18 19:33 33.219661 -117.204762 69 4008ft 155kts
16-Jul-18 19:34 33.235025 -117.156637 68 4005ft 153kts
16-Jul-18 19:35 33.250084 -117.109546 70 4007ft 149kts
16-Jul-18 19:36 33.232263 -117.070725 141 4012ft 141kts
16-Jul-18 19:37 33.201540 -117.040005 141 3749ft 148kts
16-Jul-18 19:38 33.170513 -117.046591 238 3533ft 133kts
16-Jul-18 19:39 33.156936 -117.086317 258 3493ft 118kts
16-Jul-18 19:40 33.153144 -117.124686 261 2986ft 127kts
16-Jul-18 19:41 33.147697 -117.162367 259 2314ft 108kts
16-Jul-18 19:42 33.141860 -117.196442 255 1685ft 97kts
16-Jul-18 19:43 33.137252 -117.226413 255 1241ft 89kts
16-Jul-18 19:44 33.132605 -117.253901 255 699ft 79kts
16-Jul-18 19:45 33.128544 -117.278328 256 334ft 46kts
16-Jul-18 19:46 33.127657 -117.280383 218 334ft 0kts
16-Jul-18 19:47 33.127506 -117.277689 129 334ft 14kts
16-Jul-18 19:48 33.126648 -117.277711 254 334ft 0kts
16-Jul-18 19:49 33.126648 -117.277711 254 334ft 0kts
16-Jul-18 19:50 33.126648 -117.277711 254 334ft 0kts
16-Jul-18 19:51 33.126648 -117.277711 254 334ft 0kts
16-Jul-18 19:52 33.126648 -117.277711 254 334ft 0kts
16-Jul-18 19:53 33.126648 -117.277711 254 334ft 0kts
16-Jul-18 19:54 33.126648 -117.277711 254 334ft 0kts

Navigation Log

Ident Type
1. KPSP Airport
2. TRM Navaid
3. WARNE Fix
4. JLI Navaid
5. KCRQ Airport